Time;durP1;ratioP1;P1;durP2;ratioP2;P2;SDS_P1;SDS_P2;PMS_P1;PMS_P2;Temp;Humidity;BMP_temperature;BMP_pressure;BME280_temperature;BME280_humidity;BME280_pressure;Samples;Min_cycle;Max_cycle;Signal;HPM_P1;HPM_P2
2023/06/06 00:01:55;;;;;;;6.77;4.90;;;;;;;;;;5091810;28;21056;-67
2023/06/06 00:04:24;;;;;;;5.13;4.63;;;;;;;;;;5074203;28;20621;-67
2023/06/06 00:06:53;;;;;;;5.33;3.70;;;;;;;;;;5093452;28;20620;-67
2023/06/06 00:09:22;;;;;;;4.30;3.90;;;;;;;;;;5093148;28;20648;-67
2023/06/06 00:11:51;;;;;;;4.17;3.87;;;;;;;;;;5093623;28;20601;-67
2023/06/06 00:14:21;;;;;;;5.67;3.77;;;;;;;;;;5093487;28;20609;-67
2023/06/06 00:16:49;;;;;;;3.80;3.60;;;;;;;;;;5075389;28;20605;-67
2023/06/06 00:19:20;;;;;;;4.90;4.07;;;;;;;;;;5093184;28;20613;-67
2023/06/06 00:21:48;;;;;;;5.87;3.90;;;;;;;;;;5093227;28;20581;-69
2023/06/06 00:24:17;;;;;;;4.40;4.10;;;;;;;;;;5075272;28;20613;-67
2023/06/06 00:26:46;;;;;;;4.13;3.80;;;;;;;;;;5092263;28;20603;-67
2023/06/06 00:29:15;;;;;;;3.70;3.50;;;;;;;;;;5093224;28;20645;-67
2023/06/06 00:31:43;;;;;;;3.20;3.00;;;;;;;;;;5092714;28;21195;-67
2023/06/06 00:34:12;;;;;;;3.87;3.67;;;;;;;;;;5092516;28;20625;-67
2023/06/06 00:36:41;;;;;;;4.33;4.03;;;;;;;;;;5092594;28;20629;-67
2023/06/06 00:39:09;;;;;;;4.43;4.13;;;;;;;;;;5093429;28;20600;-67
2023/06/06 00:41:37;;;;;;;6.73;3.87;;;;;;;;;;5092382;28;21267;-67
2023/06/06 00:44:07;;;;;;;4.10;3.90;;;;;;;;;;5093305;28;20621;-65
2023/06/06 00:46:35;;;;;;;4.03;3.47;;;;;;;;;;5092672;28;20621;-67
2023/06/06 00:49:03;;;;;;;3.90;3.50;;;;;;;;;;5093288;28;20684;-67
2023/06/06 00:51:33;;;;;;;3.70;3.40;;;;;;;;;;5092624;28;20604;-67
2023/06/06 00:54:01;;;;;;;4.20;3.83;;;;;;;;;;5075056;28;20613;-67
2023/06/06 00:56:30;;;;;;;4.40;4.07;;;;;;;;;;5092737;28;20666;-67
2023/06/06 00:58:59;;;;;;;3.70;3.50;;;;;;;;;;5092792;28;20612;-67
2023/06/06 01:01:29;;;;;;;4.20;3.90;;;;;;;;;;5090638;28;20666;-67
2023/06/06 01:03:58;;;;;;;4.50;4.10;;;;;;;;;;5092028;28;20809;-67
2023/06/06 01:06:27;;;;;;;4.77;4.47;;;;;;;;;;5074569;28;20619;-67
2023/06/06 01:08:56;;;;;;;5.03;3.73;;;;;;;;;;5092951;28;20656;-67
2023/06/06 01:11:29;;;;;;;5.43;3.83;;;;;;;;;;5069587;28;20672;-67
2023/06/06 01:14:03;;;;;;;6.97;4.50;;;;;;;;;;5071464;28;20576;-67
2023/06/06 01:16:34;;;;;;;7.93;4.00;;;;;;;;;;5092145;28;20958;-67
2023/06/06 01:19:04;;;;;;;5.73;4.53;;;;;;;;;;5085087;28;20594;-67
2023/06/06 01:21:37;;;;;;;4.47;4.07;;;;;;;;;;5071931;28;20919;-67
2023/06/06 01:24:06;;;;;;;6.97;4.30;;;;;;;;;;5072210;28;20564;-67
2023/06/06 01:26:34;;;;;;;6.13;3.83;;;;;;;;;;5072428;28;20606;-67
2023/06/06 01:29:02;;;;;;;4.30;3.90;;;;;;;;;;5054084;28;20629;-67
2023/06/06 01:31:34;;;;;;;4.50;4.20;;;;;;;;;;5054526;28;20644;-67
2023/06/06 01:34:06;;;;;;;4.37;4.07;;;;;;;;;;5071850;28;20598;-67
2023/06/06 01:36:42;;;;;;;4.20;3.80;;;;;;;;;;5037792;28;20585;-68
2023/06/06 01:39:11;;;;;;;4.87;4.47;;;;;;;;;;5071128;28;20598;-66
2023/06/06 01:41:40;;;;;;;5.83;4.87;;;;;;;;;;5084603;28;20591;-67
2023/06/06 01:44:09;;;;;;;4.67;4.37;;;;;;;;;;5073744;28;20935;-67
2023/06/06 01:46:38;;;;;;;6.47;4.30;;;;;;;;;;5091675;28;20609;-67
2023/06/06 01:49:08;;;;;;;4.63;4.23;;;;;;;;;;5073466;28;20645;-67
2023/06/06 01:51:38;;;;;;;4.07;3.83;;;;;;;;;;5090923;28;20625;-67
2023/06/06 01:54:06;;;;;;;5.60;4.10;;;;;;;;;;5091307;28;20616;-67
2023/06/06 01:56:35;;;;;;;4.37;3.93;;;;;;;;;;5073233;28;20613;-67
2023/06/06 01:59:04;;;;;;;8.93;4.63;;;;;;;;;;5072617;28;21279;-67
2023/06/06 02:01:32;;;;;;;6.50;4.57;;;;;;;;;;5072515;28;20621;-67
2023/06/06 02:04:02;;;;;;;5.07;4.67;;;;;;;;;;5090357;28;20596;-67
2023/06/06 02:06:32;;;;;;;6.10;5.50;;;;;;;;;;5073098;28;21150;-67
2023/06/06 02:09:02;;;;;;;6.23;4.63;;;;;;;;;;5073088;28;20660;-67
2023/06/06 02:11:31;;;;;;;5.17;4.67;;;;;;;;;;5091039;28;21186;-66
2023/06/06 02:13:59;;;;;;;5.83;5.33;;;;;;;;;;5073022;28;20645;-67
2023/06/06 02:16:29;;;;;;;7.97;4.30;;;;;;;;;;5091309;28;20939;-67
2023/06/06 02:18:58;;;;;;;6.30;5.70;;;;;;;;;;5056594;28;20595;-66
2023/06/06 02:21:27;;;;;;;6.10;4.97;;;;;;;;;;5072794;28;20627;-67
2023/06/06 02:23:55;;;;;;;5.20;4.70;;;;;;;;;;5090485;28;20596;-67
2023/06/06 02:26:25;;;;;;;7.13;4.87;;;;;;;;;;5090709;28;20584;-67
2023/06/06 02:28:54;;;;;;;4.93;4.43;;;;;;;;;;5090787;28;21254;-67
2023/06/06 02:31:23;;;;;;;7.83;5.20;;;;;;;;;;5072785;28;20584;-67
2023/06/06 02:33:51;;;;;;;5.80;4.87;;;;;;;;;;5091170;28;20631;-67
2023/06/06 02:36:19;;;;;;;6.17;4.80;;;;;;;;;;5072773;28;20935;-67
2023/06/06 02:38:48;;;;;;;5.70;5.00;;;;;;;;;;5073549;28;20624;-67
2023/06/06 02:41:16;;;;;;;5.00;4.60;;;;;;;;;;5072612;28;20584;-67
2023/06/06 02:43:47;;;;;;;6.10;4.93;;;;;;;;;;5073321;28;20916;-66
2023/06/06 02:46:16;;;;;;;5.00;4.53;;;;;;;;;;5056144;28;20577;-67
2023/06/06 02:48:47;;;;;;;11.00;5.20;;;;;;;;;;5072782;28;20647;-67
2023/06/06 02:51:16;;;;;;;6.70;5.00;;;;;;;;;;5090757;28;20556;-68
2023/06/06 02:53:44;;;;;;;7.97;5.83;;;;;;;;;;5091077;28;20643;-67
2023/06/06 02:56:14;;;;;;;5.83;5.20;;;;;;;;;;5090750;28;20621;-67
2023/06/06 02:58:42;;;;;;;5.87;5.10;;;;;;;;;;5090331;28;20648;-67
2023/06/06 03:01:13;;;;;;;5.43;5.00;;;;;;;;;;5090484;28;20609;-67
2023/06/06 03:03:41;;;;;;;5.90;5.40;;;;;;;;;;5071294;28;20656;-66
2023/06/06 03:06:10;;;;;;;5.87;4.70;;;;;;;;;;5072666;28;20602;-67
2023/06/06 03:08:40;;;;;;;5.70;5.20;;;;;;;;;;5090279;28;21210;-66
2023/06/06 03:11:09;;;;;;;5.47;4.97;;;;;;;;;;5072445;28;20668;-66
2023/06/06 03:13:38;;;;;;;5.63;5.00;;;;;;;;;;5072224;28;20632;-67
2023/06/06 03:16:07;;;;;;;8.73;4.20;;;;;;;;;;5071644;28;21135;-67
2023/06/06 03:18:41;;;;;;;5.63;5.23;;;;;;;;;;5055792;28;20609;-67
2023/06/06 03:21:13;;;;;;;10.33;5.07;;;;;;;;;;5072836;28;21107;-67
2023/06/06 03:23:45;;;;;;;7.10;6.50;;;;;;;;;;5072311;28;21141;-67
2023/06/06 03:26:13;;;;;;;6.20;5.40;;;;;;;;;;5091186;28;20594;-67
2023/06/06 03:28:42;;;;;;;5.73;5.23;;;;;;;;;;5072141;28;20606;-67
2023/06/06 03:31:13;;;;;;;6.77;5.00;;;;;;;;;;5072873;28;20640;-67
2023/06/06 03:33:51;;;;;;;5.43;4.93;;;;;;;;;;5071879;28;20595;-67
2023/06/06 03:36:21;;;;;;;6.40;5.80;;;;;;;;;;5073511;28;20615;-67
2023/06/06 03:38:50;;;;;;;5.67;5.27;;;;;;;;;;5075252;28;20625;-67
2023/06/06 03:41:19;;;;;;;26.63;7.67;;;;;;;;;;5076601;28;20609;-67
2023/06/06 03:43:48;;;;;;;5.90;5.40;;;;;;;;;;5075626;28;20591;-66
2023/06/06 03:46:17;;;;;;;5.27;4.87;;;;;;;;;;5076287;28;20595;-67
2023/06/06 03:48:45;;;;;;;5.20;4.17;;;;;;;;;;5075610;28;20667;-67
2023/06/06 03:51:15;;;;;;;6.50;4.80;;;;;;;;;;5094236;28;20675;-67
2023/06/06 03:53:43;;;;;;;5.93;5.43;;;;;;;;;;5094426;28;20584;-67
2023/06/06 03:56:12;;;;;;;4.90;4.23;;;;;;;;;;5094088;28;20660;-67
2023/06/06 03:58:41;;;;;;;4.63;4.23;;;;;;;;;;5093396;28;20633;-67
2023/06/06 04:01:10;;;;;;;8.00;5.13;;;;;;;;;;5075325;28;20594;-67
2023/06/06 04:03:38;;;;;;;4.87;4.40;;;;;;;;;;5090822;28;21180;-67
2023/06/06 04:06:08;;;;;;;7.40;5.10;;;;;;;;;;5075100;28;20597;-67
2023/06/06 04:08:39;;;;;;;6.10;5.40;;;;;;;;;;5093144;28;20853;-67
2023/06/06 04:11:07;;;;;;;4.93;4.60;;;;;;;;;;5093265;28;20675;-67
2023/06/06 04:13:35;;;;;;;7.10;4.30;;;;;;;;;;5075180;28;20592;-66
2023/06/06 04:16:04;;;;;;;4.87;4.57;;;;;;;;;;5093875;28;20595;-67
2023/06/06 04:18:33;;;;;;;5.83;4.33;;;;;;;;;;5093257;28;21143;-67
2023/06/06 04:21:02;;;;;;;4.90;4.50;;;;;;;;;;5076057;28;20926;-67
2023/06/06 04:23:30;;;;;;;7.60;4.13;;;;;;;;;;5092957;28;20588;-67
2023/06/06 04:26:02;;;;;;;5.90;5.40;;;;;;;;;;5093667;28;20609;-67
2023/06/06 04:28:31;;;;;;;5.43;4.97;;;;;;;;;;5058450;28;21147;-67
2023/06/06 04:31:00;;;;;;;5.30;4.90;;;;;;;;;;5075009;28;20657;-67
2023/06/06 04:33:30;;;;;;;5.83;4.57;;;;;;;;;;5093136;28;20609;-67
2023/06/06 04:36:00;;;;;;;5.43;5.00;;;;;;;;;;5074862;28;20584;-67
2023/06/06 04:38:29;;;;;;;9.30;5.70;;;;;;;;;;5074827;28;20613;-67
2023/06/06 04:41:01;;;;;;;10.00;5.93;;;;;;;;;;5074603;28;20650;-67
2023/06/06 04:43:32;;;;;;;6.27;5.67;;;;;;;;;;5092859;28;21197;-67
2023/06/06 04:46:01;;;;;;;6.00;5.50;;;;;;;;;;5074811;28;20554;-67
2023/06/06 04:48:30;;;;;;;4.87;4.50;;;;;;;;;;5092093;28;20630;-67
2023/06/06 04:50:59;;;;;;;5.87;5.27;;;;;;;;;;5092299;28;20624;-67
2023/06/06 04:53:28;;;;;;;9.93;6.00;;;;;;;;;;5074319;28;21141;-67
2023/06/06 04:55:56;;;;;;;10.43;6.27;;;;;;;;;;5074557;28;21013;-67
2023/06/06 04:58:28;;;;;;;5.20;4.70;;;;;;;;;;5092255;28;20625;-67
2023/06/06 05:00:58;;;;;;;6.60;4.70;;;;;;;;;;5091872;28;20568;-67
2023/06/06 05:03:27;;;;;;;5.83;5.33;;;;;;;;;;5091382;28;20621;-67
2023/06/06 05:05:56;;;;;;;5.23;4.73;;;;;;;;;;5091465;28;20621;-67
2023/06/06 05:08:24;;;;;;;6.53;4.87;;;;;;;;;;5093190;28;20578;-67
2023/06/06 05:10:53;;;;;;;5.90;4.70;;;;;;;;;;5091625;28;20640;-67
2023/06/06 05:13:21;;;;;;;7.20;5.50;;;;;;;;;;5074371;28;20867;-67
2023/06/06 05:15:53;;;;;;;25.80;8.40;;;;;;;;;;5089585;28;20602;-67
2023/06/06 05:18:22;;;;;;;5.50;5.00;;;;;;;;;;5091996;28;20595;-67
2023/06/06 05:20:51;;;;;;;6.07;5.50;;;;;;;;;;5073595;28;20625;-67
2023/06/06 05:23:19;;;;;;;5.30;4.80;;;;;;;;;;5091917;28;20605;-67
2023/06/06 05:25:48;;;;;;;5.30;4.83;;;;;;;;;;5073225;28;20625;-67
2023/06/06 05:28:17;;;;;;;5.23;4.40;;;;;;;;;;5091776;28;20617;-67
2023/06/06 05:30:45;;;;;;;11.13;5.83;;;;;;;;;;5091391;28;20957;-67
2023/06/06 05:33:13;;;;;;;5.40;4.97;;;;;;;;;;5074061;28;20594;-67
2023/06/06 05:35:43;;;;;;;11.97;4.93;;;;;;;;;;5091435;28;20960;-67
2023/06/06 05:38:12;;;;;;;14.17;5.30;;;;;;;;;;5091554;28;21165;-67
2023/06/06 05:40:40;;;;;;;6.00;4.67;;;;;;;;;;5091409;28;21175;-67
2023/06/06 05:43:08;;;;;;;11.97;5.67;;;;;;;;;;5091767;28;20605;-67
2023/06/06 05:45:37;;;;;;;5.53;5.03;;;;;;;;;;5073638;28;20625;-67
2023/06/06 05:48:05;;;;;;;4.70;4.23;;;;;;;;;;5091411;28;20587;-67
2023/06/06 05:50:34;;;;;;;6.10;5.03;;;;;;;;;;5069810;28;21073;-66
2023/06/06 05:53:03;;;;;;;5.97;5.37;;;;;;;;;;5089579;28;21209;-68
2023/06/06 05:55:33;;;;;;;8.00;5.30;;;;;;;;;;5090629;28;20628;-67
2023/06/06 05:58:02;;;;;;;6.23;4.70;;;;;;;;;;5090465;28;20632;-67
2023/06/06 06:00:31;;;;;;;6.17;4.73;;;;;;;;;;5083837;28;21167;-67
2023/06/06 06:03:00;;;;;;;10.37;5.27;;;;;;;;;;5083051;28;20670;-67
2023/06/06 06:05:29;;;;;;;6.67;4.30;;;;;;;;;;5067980;28;20982;-67
2023/06/06 06:07:59;;;;;;;6.60;5.50;;;;;;;;;;5070476;28;20608;-67
2023/06/06 06:10:29;;;;;;;5.47;4.97;;;;;;;;;;5089771;28;20628;-67
2023/06/06 06:12:57;;;;;;;6.50;5.33;;;;;;;;;;5088872;28;20586;-67
2023/06/06 06:15:26;;;;;;;6.00;5.43;;;;;;;;;;5064932;28;20637;-67
2023/06/06 06:17:54;;;;;;;6.60;6.00;;;;;;;;;;5073011;28;20999;-68
2023/06/06 06:20:23;;;;;;;9.53;5.43;;;;;;;;;;5089730;28;20617;-67
2023/06/06 06:22:51;;;;;;;5.03;4.53;;;;;;;;;;5051599;28;20611;-67
2023/06/06 06:25:20;;;;;;;8.23;5.43;;;;;;;;;;5081882;28;20636;-67
2023/06/06 06:27:50;;;;;;;5.43;4.93;;;;;;;;;;5084072;28;20746;-67
2023/06/06 06:30:19;;;;;;;10.13;5.03;;;;;;;;;;5087623;28;21003;-67
2023/06/06 06:32:48;;;;;;;5.47;4.97;;;;;;;;;;5066358;28;20665;-67
2023/06/06 06:35:16;;;;;;;5.63;5.10;;;;;;;;;;5089510;28;20623;-67
2023/06/06 06:37:44;;;;;;;9.40;5.40;;;;;;;;;;5072173;28;20592;-67
2023/06/06 06:40:13;;;;;;;5.17;4.80;;;;;;;;;;5089084;28;21007;-67
2023/06/06 06:42:43;;;;;;;11.60;6.83;;;;;;;;;;5090642;28;20608;-67
2023/06/06 06:45:37;;;;;;;4.83;4.50;;;;;;;;;;5070221;28;20943;-65
2023/06/06 06:48:05;;;;;;;5.37;4.97;;;;;;;;;;5087120;28;21194;-67
2023/06/06 06:50:33;;;;;;;6.27;4.87;;;;;;;;;;5089495;28;20990;-67
2023/06/06 06:53:04;;;;;;;5.47;4.97;;;;;;;;;;5073169;28;20621;-67
2023/06/06 06:55:34;;;;;;;5.23;4.83;;;;;;;;;;5088897;28;20584;-67
2023/06/06 06:58:03;;;;;;;35.17;7.63;;;;;;;;;;5089851;28;21114;-67
2023/06/06 07:00:31;;;;;;;4.57;4.17;;;;;;;;;;5048923;28;20639;-67
2023/06/06 07:03:04;;;;;;;7.33;4.17;;;;;;;;;;5047391;28;20668;-67
2023/06/06 07:05:33;;;;;;;4.80;4.50;;;;;;;;;;5049379;28;20630;-67
2023/06/06 07:08:02;;;;;;;4.93;4.53;;;;;;;;;;5049446;28;20637;-68
2023/06/06 07:10:31;;;;;;;5.03;4.53;;;;;;;;;;5048752;28;21288;-67
2023/06/06 07:13:01;;;;;;;7.30;5.00;;;;;;;;;;5053514;28;20655;-67
2023/06/06 07:15:31;;;;;;;4.43;4.13;;;;;;;;;;5052451;28;21190;-67
2023/06/06 07:18:02;;;;;;;14.57;5.40;;;;;;;;;;5052324;28;20637;-67
2023/06/06 07:20:32;;;;;;;6.63;4.43;;;;;;;;;;5046881;28;20581;-67
2023/06/06 07:23:00;;;;;;;5.10;4.70;;;;;;;;;;5049824;28;20627;-68
2023/06/06 07:25:29;;;;;;;4.73;4.33;;;;;;;;;;5054266;28;21198;-67
2023/06/06 07:27:58;;;;;;;4.53;4.13;;;;;;;;;;5052871;28;20707;-68
2023/06/06 07:30:27;;;;;;;5.30;5.00;;;;;;;;;;5053390;28;20630;-67
2023/06/06 07:32:55;;;;;;;4.80;4.37;;;;;;;;;;5051379;28;20716;-67
2023/06/06 07:35:24;;;;;;;5.20;4.13;;;;;;;;;;5049785;28;20633;-67
2023/06/06 07:37:54;;;;;;;5.20;4.53;;;;;;;;;;5052177;28;20995;-67
2023/06/06 07:40:22;;;;;;;5.20;4.80;;;;;;;;;;5051641;28;20981;-67
2023/06/06 07:42:50;;;;;;;5.57;5.10;;;;;;;;;;5053126;28;20625;-67
2023/06/06 07:45:18;;;;;;;7.10;4.33;;;;;;;;;;5053576;28;20615;-67
2023/06/06 07:47:47;;;;;;;5.77;4.80;;;;;;;;;;5052528;28;20963;-67
2023/06/06 07:50:15;;;;;;;5.23;4.63;;;;;;;;;;5051984;28;20623;-67
2023/06/06 07:52:45;;;;;;;4.60;4.30;;;;;;;;;;5052879;28;20663;-66
2023/06/06 07:55:16;;;;;;;5.23;4.77;;;;;;;;;;5053322;28;20613;-68
2023/06/06 07:57:46;;;;;;;5.40;5.00;;;;;;;;;;5053949;28;20583;-68
2023/06/06 08:00:14;;;;;;;4.90;4.60;;;;;;;;;;5069639;28;20664;-67
2023/06/06 08:02:43;;;;;;;5.20;4.70;;;;;;;;;;5070831;28;20618;-67
2023/06/06 08:05:11;;;;;;;4.90;4.50;;;;;;;;;;5070726;28;20615;-67
2023/06/06 08:07:42;;;;;;;5.80;4.83;;;;;;;;;;5071443;28;20672;-67
2023/06/06 08:10:10;;;;;;;15.03;6.03;;;;;;;;;;5070940;28;21032;-67
2023/06/06 08:12:40;;;;;;;5.10;4.70;;;;;;;;;;5071568;28;20662;-68
2023/06/06 08:15:09;;;;;;;5.70;5.27;;;;;;;;;;5070720;28;20633;-66
2023/06/06 08:17:37;;;;;;;5.67;5.17;;;;;;;;;;5071811;28;20630;-67
2023/06/06 08:20:08;;;;;;;9.63;5.43;;;;;;;;;;5073567;28;20692;-63
2023/06/06 08:22:37;;;;;;;5.90;5.37;;;;;;;;;;5072496;28;20574;-67
2023/06/06 08:25:07;;;;;;;6.03;5.30;;;;;;;;;;5072415;28;20609;-64
2023/06/06 08:27:36;;;;;;;7.03;5.27;;;;;;;;;;5071495;28;20987;-64
2023/06/06 08:30:06;;;;;;;4.83;4.53;;;;;;;;;;5073630;28;20606;-68
2023/06/06 08:32:34;;;;;;;8.23;5.13;;;;;;;;;;5071421;28;20630;-67
2023/06/06 08:35:04;;;;;;;5.43;4.83;;;;;;;;;;5073250;28;20607;-68
2023/06/06 08:37:32;;;;;;;5.30;4.90;;;;;;;;;;5072463;28;20614;-67
2023/06/06 08:40:00;;;;;;;5.53;5.13;;;;;;;;;;5073409;28;20614;-67
2023/06/06 08:42:29;;;;;;;6.40;5.57;;;;;;;;;;5072891;28;20595;-67
2023/06/06 08:44:58;;;;;;;9.50;5.47;;;;;;;;;;5072587;28;20606;-67
2023/06/06 08:47:28;;;;;;;6.43;4.70;;;;;;;;;;5072801;28;20617;-67
2023/06/06 08:49:56;;;;;;;5.30;5.00;;;;;;;;;;5072088;28;20610;-68
2023/06/06 08:52:25;;;;;;;5.40;4.90;;;;;;;;;;5072680;28;20654;-68
2023/06/06 08:54:53;;;;;;;5.47;5.00;;;;;;;;;;5072395;28;20610;-68
2023/06/06 08:57:22;;;;;;;5.53;5.10;;;;;;;;;;5071932;28;20614;-67
2023/06/06 08:59:51;;;;;;;5.30;4.90;;;;;;;;;;5086698;28;20651;-68
2023/06/06 09:02:19;;;;;;;5.70;5.20;;;;;;;;;;5091309;28;20673;-68
2023/06/06 09:04:50;;;;;;;4.93;4.60;;;;;;;;;;5091320;28;20646;-68
2023/06/06 09:07:20;;;;;;;4.70;4.40;;;;;;;;;;5092453;28;20597;-68
2023/06/06 09:09:50;;;;;;;5.47;5.07;;;;;;;;;;5092674;28;20644;-67
2023/06/06 09:12:18;;;;;;;6.77;6.17;;;;;;;;;;5091637;28;20989;-67
2023/06/06 09:14:46;;;;;;;6.20;4.77;;;;;;;;;;5092541;28;20962;-67
2023/06/06 09:17:17;;;;;;;6.70;5.37;;;;;;;;;;5092275;28;20937;-68
2023/06/06 09:19:46;;;;;;;5.50;5.10;;;;;;;;;;5074551;28;20601;-66
2023/06/06 09:22:15;;;;;;;5.40;4.93;;;;;;;;;;5092577;28;20620;-68
2023/06/06 09:24:44;;;;;;;5.70;5.30;;;;;;;;;;5092453;28;20609;-68
2023/06/06 09:27:28;;;;;;;4.60;4.30;;;;;;;;;;5091919;28;20998;-68
2023/06/06 09:29:56;;;;;;;6.13;5.60;;;;;;;;;;5091843;28;20586;-68
2023/06/06 09:32:30;;;;;;;4.73;4.33;;;;;;;;;;5092163;28;20653;-68
2023/06/06 09:35:01;;;;;;;7.37;5.17;;;;;;;;;;5092076;28;20602;-68
2023/06/06 09:37:31;;;;;;;5.33;4.90;;;;;;;;;;5092570;28;20581;-69
2023/06/06 09:40:12;;;;;;;5.10;4.60;;;;;;;;;;5091751;28;20586;-66
2023/06/06 09:42:41;;;;;;;6.63;5.00;;;;;;;;;;5092185;28;20566;-67
2023/06/06 09:45:14;;;;;;;5.30;4.90;;;;;;;;;;5073013;28;21170;-67
2023/06/06 09:47:42;;;;;;;4.90;4.60;;;;;;;;;;5091022;28;20625;-68
2023/06/06 09:50:11;;;;;;;5.10;4.70;;;;;;;;;;5091435;28;20617;-67
2023/06/06 09:52:41;;;;;;;5.27;4.87;;;;;;;;;;5091705;28;20697;-68
2023/06/06 09:55:10;;;;;;;5.83;5.10;;;;;;;;;;5091499;28;20608;-68
2023/06/06 09:57:39;;;;;;;6.40;5.87;;;;;;;;;;5091597;28;21227;-67
2023/06/06 10:00:10;;;;;;;5.87;5.27;;;;;;;;;;5090163;28;20657;-67
2023/06/06 10:02:43;;;;;;;5.63;5.10;;;;;;;;;;5089680;28;21300;-68
2023/06/06 10:05:13;;;;;;;5.63;5.23;;;;;;;;;;5090940;28;20619;-69
2023/06/06 10:07:44;;;;;;;6.20;5.60;;;;;;;;;;5073676;28;20620;-68
2023/06/06 10:10:13;;;;;;;9.50;4.57;;;;;;;;;;5073551;28;20991;-67
2023/06/06 10:12:43;;;;;;;5.90;5.50;;;;;;;;;;5073180;28;20653;-68
2023/06/06 10:15:12;;;;;;;5.13;4.80;;;;;;;;;;5091191;28;20630;-67
2023/06/06 10:17:41;;;;;;;5.60;5.20;;;;;;;;;;5091059;28;20613;-68
2023/06/06 10:20:11;;;;;;;5.97;4.80;;;;;;;;;;5091226;28;20609;-67
2023/06/06 10:22:41;;;;;;;5.90;5.30;;;;;;;;;;5077724;28;20676;-66
2023/06/06 10:25:12;;;;;;;7.73;5.60;;;;;;;;;;5104458;28;20680;-65
2023/06/06 10:27:44;;;;;;;5.90;5.47;;;;;;;;;;5104579;28;20674;-64
2023/06/06 10:30:17;;;;;;;8.20;7.40;;;;;;;;;;5086958;28;20637;-66
2023/06/06 10:32:49;;;;;;;6.20;5.60;;;;;;;;;;5104585;28;20685;-66
2023/06/06 10:35:19;;;;;;;6.97;5.40;;;;;;;;;;5101322;28;21241;-66
2023/06/06 10:38:02;;;;;;;11.30;5.37;;;;;;;;;;5103485;28;20705;-65
2023/06/06 10:40:42;;;;;;;5.27;4.87;;;;;;;;;;5086293;28;20689;-65
2023/06/06 10:43:11;;;;;;;5.90;5.43;;;;;;;;;;5101227;28;20688;-65
2023/06/06 10:45:42;;;;;;;11.70;5.57;;;;;;;;;;5104758;28;20700;-65
2023/06/06 10:48:10;;;;;;;5.40;5.00;;;;;;;;;;5106477;28;20642;-65
2023/06/06 10:50:52;;;;;;;5.90;5.40;;;;;;;;;;5108050;28;20705;-64
2023/06/06 10:53:20;;;;;;;5.33;5.03;;;;;;;;;;5109784;28;20827;-65
2023/06/06 10:55:50;;;;;;;6.27;5.77;;;;;;;;;;5107960;28;20763;-65
2023/06/06 10:58:20;;;;;;;5.90;5.30;;;;;;;;;;5106537;28;20700;-65
2023/06/06 11:00:49;;;;;;;5.50;5.20;;;;;;;;;;5107026;28;20612;-65
2023/06/06 11:03:20;;;;;;;6.33;5.47;;;;;;;;;;5087784;28;20704;-65
2023/06/06 11:06:07;;;;;;;5.50;5.20;;;;;;;;;;5104744;28;20668;-66
2023/06/06 11:08:36;;;;;;;7.57;6.80;;;;;;;;;;5104994;28;20672;-65
2023/06/06 11:11:35;;;;;;;9.77;5.97;;;;;;;;;;5105347;28;20729;-66
2023/06/06 11:14:06;;;;;;;26.23;7.53;;;;;;;;;;5106281;28;20728;-66
2023/06/06 11:16:49;;;;;;;6.93;5.10;;;;;;;;;;5107472;28;20609;-64
2023/06/06 11:19:19;;;;;;;5.90;5.50;;;;;;;;;;5107052;28;20683;-65
2023/06/06 11:21:48;;;;;;;5.30;5.00;;;;;;;;;;5107472;28;20657;-65
2023/06/06 11:24:18;;;;;;;7.07;5.13;;;;;;;;;;5104773;28;20685;-66
2023/06/06 11:26:47;;;;;;;6.77;6.27;;;;;;;;;;5103701;28;21174;-65
2023/06/06 11:29:17;;;;;;;5.90;5.60;;;;;;;;;;5104636;28;20712;-66
2023/06/06 11:31:47;;;;;;;6.60;6.00;;;;;;;;;;5105282;28;21221;-66
2023/06/06 11:34:15;;;;;;;6.53;5.87;;;;;;;;;;5105007;28;20719;-66
2023/06/06 11:36:45;;;;;;;5.67;5.30;;;;;;;;;;5107373;28;20648;-66
2023/06/06 11:39:14;;;;;;;6.13;5.03;;;;;;;;;;5107594;28;20720;-66
2023/06/06 11:41:43;;;;;;;6.50;5.90;;;;;;;;;;5104821;28;21258;-66
2023/06/06 11:44:11;;;;;;;5.93;5.53;;;;;;;;;;5103317;28;20688;-63
2023/06/06 11:46:50;;;;;;;6.70;6.13;;;;;;;;;;5102950;28;20681;-64
2023/06/06 11:49:19;;;;;;;6.57;6.17;;;;;;;;;;5104533;28;20992;-63
2023/06/06 11:51:56;;;;;;;6.80;6.10;;;;;;;;;;5103101;28;20712;-64
2023/06/06 11:54:24;;;;;;;7.20;6.50;;;;;;;;;;5104058;28;20728;-64
2023/06/06 11:56:53;;;;;;;6.50;5.90;;;;;;;;;;5086261;28;20680;-64
2023/06/06 11:59:21;;;;;;;6.33;5.83;;;;;;;;;;5105380;28;20715;-64
2023/06/06 12:01:52;;;;;;;6.87;6.17;;;;;;;;;;5103690;28;21319;-66
2023/06/06 12:04:21;;;;;;;6.93;6.43;;;;;;;;;;5103454;28;20653;-65
2023/06/06 12:06:50;;;;;;;5.77;5.40;;;;;;;;;;5102324;28;20685;-64
2023/06/06 12:09:19;;;;;;;22.93;6.47;;;;;;;;;;5103679;28;20712;-65
2023/06/06 12:11:51;;;;;;;14.30;6.30;;;;;;;;;;5103165;28;20704;-65
2023/06/06 12:14:19;;;;;;;6.23;5.73;;;;;;;;;;5104975;28;20720;-65
2023/06/06 12:16:47;;;;;;;6.70;5.97;;;;;;;;;;5103013;28;20700;-65
2023/06/06 12:19:18;;;;;;;7.13;6.43;;;;;;;;;;5104730;28;20704;-66
2023/06/06 12:21:46;;;;;;;6.30;5.80;;;;;;;;;;5105548;28;21062;-65
2023/06/06 12:24:18;;;;;;;5.60;5.20;;;;;;;;;;5105021;28;20704;-65
2023/06/06 12:26:53;;;;;;;6.30;5.80;;;;;;;;;;5103749;28;20664;-64
2023/06/06 12:29:22;;;;;;;6.60;6.00;;;;;;;;;;5104160;28;20664;-65
2023/06/06 12:31:50;;;;;;;6.50;5.90;;;;;;;;;;5103269;28;20685;-65
2023/06/06 12:34:40;;;;;;;6.40;5.90;;;;;;;;;;5104092;28;20708;-65
2023/06/06 12:37:09;;;;;;;7.67;6.10;;;;;;;;;;5103328;28;20684;-65
2023/06/06 12:39:40;;;;;;;6.87;6.47;;;;;;;;;;5102954;28;20732;-65
2023/06/06 12:42:15;;;;;;;9.80;6.20;;;;;;;;;;5102840;28;20664;-65
2023/06/06 12:44:43;;;;;;;6.50;5.87;;;;;;;;;;5102627;28;20743;-65
2023/06/06 12:47:14;;;;;;;7.83;6.93;;;;;;;;;;5103186;28;20693;-65
2023/06/06 12:49:45;;;;;;;6.53;6.13;;;;;;;;;;5102769;28;20668;-65
2023/06/06 12:52:14;;;;;;;45.77;7.63;;;;;;;;;;5103905;28;20646;-65
2023/06/06 12:54:42;;;;;;;6.87;6.40;;;;;;;;;;5104170;28;20744;-65
2023/06/06 12:57:11;;;;;;;6.53;6.03;;;;;;;;;;5086074;28;20688;-65
2023/06/06 12:59:41;;;;;;;11.70;6.17;;;;;;;;;;5105068;28;20704;-65
2023/06/06 13:02:09;;;;;;;9.33;6.80;;;;;;;;;;5103191;28;20644;-65
2023/06/06 13:04:38;;;;;;;6.70;6.10;;;;;;;;;;5102856;28;21013;-65
2023/06/06 13:07:08;;;;;;;6.73;6.33;;;;;;;;;;5104737;28;20685;-65
2023/06/06 13:09:37;;;;;;;7.43;6.80;;;;;;;;;;5103051;28;21269;-64
2023/06/06 13:12:07;;;;;;;6.50;6.20;;;;;;;;;;5105366;28;20648;-63
2023/06/06 13:14:36;;;;;;;6.97;6.53;;;;;;;;;;5102623;28;20748;-65
2023/06/06 13:17:04;;;;;;;7.40;6.70;;;;;;;;;;5103203;28;20712;-65
2023/06/06 13:19:32;;;;;;;7.67;6.60;;;;;;;;;;5103356;28;20708;-65
2023/06/06 13:22:01;;;;;;;6.67;6.20;;;;;;;;;;5100241;28;20716;-65
2023/06/06 13:24:30;;;;;;;7.30;6.60;;;;;;;;;;5093881;28;20639;-64
2023/06/06 13:26:59;;;;;;;6.97;6.43;;;;;;;;;;5095292;28;20705;-65
2023/06/06 13:29:27;;;;;;;17.37;7.17;;;;;;;;;;5097116;28;20728;-65
2023/06/06 13:31:55;;;;;;;12.53;6.30;;;;;;;;;;5097068;28;20713;-65
2023/06/06 13:34:23;;;;;;;7.73;6.70;;;;;;;;;;5099366;28;20795;-65
2023/06/06 13:36:51;;;;;;;7.87;6.33;;;;;;;;;;5095516;28;20704;-66
2023/06/06 13:39:20;;;;;;;11.37;7.40;;;;;;;;;;5099158;28;20677;-65
2023/06/06 13:41:49;;;;;;;7.30;6.43;;;;;;;;;;5079165;28;20697;-65
2023/06/06 13:44:18;;;;;;;7.20;6.67;;;;;;;;;;5079812;28;21325;-65
2023/06/06 13:46:46;;;;;;;7.17;6.63;;;;;;;;;;5085693;28;20697;-65
2023/06/06 13:49:17;;;;;;;6.30;5.70;;;;;;;;;;5100833;28;20728;-64
2023/06/06 13:51:45;;;;;;;11.10;6.43;;;;;;;;;;5086438;28;20668;-66
2023/06/06 13:54:13;;;;;;;6.50;6.00;;;;;;;;;;5113313;28;20716;-65
2023/06/06 13:56:47;;;;;;;6.40;5.97;;;;;;;;;;5100496;28;20803;-65
2023/06/06 13:59:16;;;;;;;5.70;5.30;;;;;;;;;;5099667;28;20725;-65
2023/06/06 14:01:46;;;;;;;6.87;6.37;;;;;;;;;;5101228;28;20693;-65
2023/06/06 14:04:15;;;;;;;6.10;5.80;;;;;;;;;;5100714;28;20677;-65
2023/06/06 14:06:43;;;;;;;10.17;6.50;;;;;;;;;;5084718;28;20994;-66
2023/06/06 14:09:14;;;;;;;6.90;6.33;;;;;;;;;;5101670;28;20704;-66
2023/06/06 14:11:44;;;;;;;9.73;6.20;;;;;;;;;;5097195;28;20682;-65
2023/06/06 14:14:13;;;;;;;5.87;5.57;;;;;;;;;;5108001;28;20688;-66
2023/06/06 14:16:42;;;;;;;6.67;6.07;;;;;;;;;;5086837;28;20661;-66
2023/06/06 14:19:12;;;;;;;7.07;6.50;;;;;;;;;;5103753;28;20693;-66
2023/06/06 14:21:57;;;;;;;7.20;6.70;;;;;;;;;;5103579;28;20697;-66
2023/06/06 14:24:30;;;;;;;6.43;6.03;;;;;;;;;;5082139;28;20673;-64
2023/06/06 14:26:59;;;;;;;13.70;6.53;;;;;;;;;;5093195;28;20677;-66
2023/06/06 14:29:27;;;;;;;7.60;6.90;;;;;;;;;;5102834;28;20689;-66
2023/06/06 14:31:56;;;;;;;6.87;6.30;;;;;;;;;;5103330;28;20700;-65
2023/06/06 14:34:24;;;;;;;6.10;5.60;;;;;;;;;;5102300;28;20688;-66
2023/06/06 14:36:53;;;;;;;9.63;6.30;;;;;;;;;;5103322;28;20740;-66
2023/06/06 14:39:21;;;;;;;6.70;6.07;;;;;;;;;;5102809;28;20697;-66
2023/06/06 14:41:50;;;;;;;7.37;6.30;;;;;;;;;;5104268;28;20681;-65
2023/06/06 14:44:19;;;;;;;6.60;6.07;;;;;;;;;;5099583;28;20685;-66
2023/06/06 14:46:47;;;;;;;7.03;5.80;;;;;;;;;;5102318;28;21035;-66
2023/06/06 14:49:17;;;;;;;7.20;6.53;;;;;;;;;;5102875;28;20676;-66
2023/06/06 14:51:45;;;;;;;9.83;6.00;;;;;;;;;;5104166;28;20712;-65
2023/06/06 14:54:14;;;;;;;6.67;5.90;;;;;;;;;;5089690;28;20689;-65
2023/06/06 14:56:43;;;;;;;5.90;5.60;;;;;;;;;;5099944;28;20653;-70
2023/06/06 14:59:11;;;;;;;15.67;5.90;;;;;;;;;;5089688;28;20647;-68